sensor_id;sensor_type;location;lat;lon;timestamp;P1;durP1;ratioP1;P2;durP2;ratioP2
53269;SDS011;39159;45.634;9.420;2023-04-15T00:01:54;5.32;;;3.08;;
53269;SDS011;39159;45.634;9.420;2023-04-15T00:04:22;5.95;;;3.55;;
53269;SDS011;39159;45.634;9.420;2023-04-15T00:06:51;8.90;;;2.95;;
53269;SDS011;39159;45.634;9.420;2023-04-15T00:09:17;6.22;;;3.53;;
53269;SDS011;39159;45.634;9.420;2023-04-15T00:11:43;6.15;;;2.90;;
53269;SDS011;39159;45.634;9.420;2023-04-15T00:14:11;3.92;;;2.33;;
53269;SDS011;39159;45.634;9.420;2023-04-15T00:16:37;4.82;;;2.05;;
53269;SDS011;39159;45.634;9.420;2023-04-15T00:19:03;3.63;;;1.55;;
53269;SDS011;39159;45.634;9.420;2023-04-15T00:21:29;3.95;;;1.33;;
53269;SDS011;39159;45.634;9.420;2023-04-15T00:23:55;2.67;;;1.35;;
53269;SDS011;39159;45.634;9.420;2023-04-15T00:26:20;2.25;;;1.10;;
53269;SDS011;39159;45.634;9.420;2023-04-15T00:28:46;2.30;;;1.13;;
53269;SDS011;39159;45.634;9.420;2023-04-15T00:31:12;2.83;;;1.08;;
53269;SDS011;39159;45.634;9.420;2023-04-15T00:33:37;2.45;;;0.90;;
53269;SDS011;39159;45.634;9.420;2023-04-15T00:36:03;0.90;;;0.60;;
53269;SDS011;39159;45.634;9.420;2023-04-15T00:38:30;1.77;;;0.75;;
53269;SDS011;39159;45.634;9.420;2023-04-15T00:40:56;2.15;;;0.90;;
53269;SDS011;39159;45.634;9.420;2023-04-15T00:43:21;1.55;;;0.80;;
53269;SDS011;39159;45.634;9.420;2023-04-15T00:45:47;1.33;;;0.80;;
53269;SDS011;39159;45.634;9.420;2023-04-15T00:48:12;1.25;;;0.75;;
53269;SDS011;39159;45.634;9.420;2023-04-15T00:50:38;2.03;;;0.80;;
53269;SDS011;39159;45.634;9.420;2023-04-15T00:53:03;1.20;;;0.77;;
53269;SDS011;39159;45.634;9.420;2023-04-15T00:55:29;1.85;;;0.93;;
53269;SDS011;39159;45.634;9.420;2023-04-15T00:57:55;1.02;;;0.80;;
53269;SDS011;39159;45.634;9.420;2023-04-15T01:00:21;1.15;;;0.80;;
53269;SDS011;39159;45.634;9.420;2023-04-15T01:02:49;2.80;;;0.73;;
53269;SDS011;39159;45.634;9.420;2023-04-15T01:05:14;0.73;;;0.50;;
53269;SDS011;39159;45.634;9.420;2023-04-15T01:07:42;1.85;;;0.88;;
53269;SDS011;39159;45.634;9.420;2023-04-15T01:10:08;1.10;;;0.80;;
53269;SDS011;39159;45.634;9.420;2023-04-15T01:12:34;4.15;;;0.73;;
53269;SDS011;39159;45.634;9.420;2023-04-15T01:15:00;1.20;;;0.70;;
53269;SDS011;39159;45.634;9.420;2023-04-15T01:17:26;1.40;;;0.70;;
53269;SDS011;39159;45.634;9.420;2023-04-15T01:19:52;0.65;;;0.57;;
53269;SDS011;39159;45.634;9.420;2023-04-15T01:22:20;1.33;;;0.77;;
53269;SDS011;39159;45.634;9.420;2023-04-15T01:24:48;1.70;;;0.55;;
53269;SDS011;39159;45.634;9.420;2023-04-15T01:27:23;0.60;;;0.52;;
53269;SDS011;39159;45.634;9.420;2023-04-15T01:29:49;1.20;;;0.65;;
53269;SDS011;39159;45.634;9.420;2023-04-15T01:32:15;0.95;;;0.68;;
53269;SDS011;39159;45.634;9.420;2023-04-15T01:34:40;0.82;;;0.60;;
53269;SDS011;39159;45.634;9.420;2023-04-15T01:37:06;3.13;;;0.50;;
53269;SDS011;39159;45.634;9.420;2023-04-15T01:39:31;1.13;;;0.57;;
53269;SDS011;39159;45.634;9.420;2023-04-15T01:41:57;1.05;;;0.52;;
53269;SDS011;39159;45.634;9.420;2023-04-15T01:44:23;0.90;;;0.60;;
53269;SDS011;39159;45.634;9.420;2023-04-15T01:46:48;1.10;;;0.50;;
53269;SDS011;39159;45.634;9.420;2023-04-15T01:49:14;0.90;;;0.60;;
53269;SDS011;39159;45.634;9.420;2023-04-15T01:51:39;2.50;;;0.70;;
53269;SDS011;39159;45.634;9.420;2023-04-15T01:54:05;0.90;;;0.60;;
53269;SDS011;39159;45.634;9.420;2023-04-15T01:56:31;1.20;;;0.55;;
53269;SDS011;39159;45.634;9.420;2023-04-15T01:58:56;1.45;;;0.50;;
53269;SDS011;39159;45.634;9.420;2023-04-15T02:01:21;0.98;;;0.70;;
53269;SDS011;39159;45.634;9.420;2023-04-15T02:03:47;0.65;;;0.47;;
53269;SDS011;39159;45.634;9.420;2023-04-15T02:06:12;1.50;;;0.60;;
53269;SDS011;39159;45.634;9.420;2023-04-15T02:08:38;1.52;;;0.60;;
53269;SDS011;39159;45.634;9.420;2023-04-15T02:11:03;0.63;;;0.40;;
53269;SDS011;39159;45.634;9.420;2023-04-15T02:13:29;1.15;;;0.60;;
53269;SDS011;39159;45.634;9.420;2023-04-15T02:15:55;1.23;;;0.60;;
53269;SDS011;39159;45.634;9.420;2023-04-15T02:18:21;0.75;;;0.50;;
53269;SDS011;39159;45.634;9.420;2023-04-15T02:20:47;1.73;;;0.70;;
53269;SDS011;39159;45.634;9.420;2023-04-15T02:23:12;0.98;;;0.68;;
53269;SDS011;39159;45.634;9.420;2023-04-15T02:25:38;1.42;;;0.70;;
53269;SDS011;39159;45.634;9.420;2023-04-15T02:28:04;4.68;;;1.55;;
53269;SDS011;39159;45.634;9.420;2023-04-15T02:30:31;3.85;;;1.63;;
53269;SDS011;39159;45.634;9.420;2023-04-15T02:32:57;5.43;;;2.05;;
53269;SDS011;39159;45.634;9.420;2023-04-15T02:35:22;3.05;;;1.17;;
53269;SDS011;39159;45.634;9.420;2023-04-15T02:37:50;1.50;;;1.15;;
53269;SDS011;39159;45.634;9.420;2023-04-15T02:40:15;2.08;;;1.00;;
53269;SDS011;39159;45.634;9.420;2023-04-15T02:42:41;2.17;;;0.90;;
53269;SDS011;39159;45.634;9.420;2023-04-15T02:45:08;3.15;;;0.82;;
53269;SDS011;39159;45.634;9.420;2023-04-15T02:47:36;2.25;;;1.02;;
53269;SDS011;39159;45.634;9.420;2023-04-15T02:50:05;2.60;;;1.05;;
53269;SDS011;39159;45.634;9.420;2023-04-15T02:52:37;1.33;;;0.80;;
53269;SDS011;39159;45.634;9.420;2023-04-15T02:55:06;1.05;;;0.77;;
53269;SDS011;39159;45.634;9.420;2023-04-15T02:57:33;2.42;;;1.13;;
53269;SDS011;39159;45.634;9.420;2023-04-15T03:00:01;2.83;;;1.20;;
53269;SDS011;39159;45.634;9.420;2023-04-15T03:02:32;2.67;;;0.90;;
53269;SDS011;39159;45.634;9.420;2023-04-15T03:04:59;1.23;;;0.93;;
53269;SDS011;39159;45.634;9.420;2023-04-15T03:07:25;1.48;;;0.98;;
53269;SDS011;39159;45.634;9.420;2023-04-15T03:09:50;1.60;;;0.90;;
53269;SDS011;39159;45.634;9.420;2023-04-15T03:12:16;1.05;;;0.70;;
53269;SDS011;39159;45.634;9.420;2023-04-15T03:14:41;1.15;;;0.70;;
53269;SDS011;39159;45.634;9.420;2023-04-15T03:17:07;1.02;;;0.90;;
53269;SDS011;39159;45.634;9.420;2023-04-15T03:19:32;1.60;;;1.00;;
53269;SDS011;39159;45.634;9.420;2023-04-15T03:21:58;2.05;;;0.80;;
53269;SDS011;39159;45.634;9.420;2023-04-15T03:24:23;1.52;;;0.90;;
53269;SDS011;39159;45.634;9.420;2023-04-15T03:26:50;1.35;;;0.77;;
53269;SDS011;39159;45.634;9.420;2023-04-15T03:29:15;1.40;;;0.85;;
53269;SDS011;39159;45.634;9.420;2023-04-15T03:31:41;3.38;;;0.80;;
53269;SDS011;39159;45.634;9.420;2023-04-15T03:34:06;0.90;;;0.80;;
53269;SDS011;39159;45.634;9.420;2023-04-15T03:36:32;2.17;;;0.85;;
53269;SDS011;39159;45.634;9.420;2023-04-15T03:38:58;1.42;;;0.90;;
53269;SDS011;39159;45.634;9.420;2023-04-15T03:41:23;2.17;;;1.02;;
53269;SDS011;39159;45.634;9.420;2023-04-15T03:43:49;1.55;;;0.90;;
53269;SDS011;39159;45.634;9.420;2023-04-15T03:46:16;1.30;;;0.95;;
53269;SDS011;39159;45.634;9.420;2023-04-15T03:48:42;1.30;;;0.90;;
53269;SDS011;39159;45.634;9.420;2023-04-15T03:51:07;2.10;;;1.25;;
53269;SDS011;39159;45.634;9.420;2023-04-15T03:53:33;2.83;;;1.05;;
53269;SDS011;39159;45.634;9.420;2023-04-15T03:55:58;5.05;;;1.02;;
53269;SDS011;39159;45.634;9.420;2023-04-15T03:58:24;3.78;;;1.17;;
53269;SDS011;39159;45.634;9.420;2023-04-15T04:00:49;2.03;;;1.20;;
53269;SDS011;39159;45.634;9.420;2023-04-15T04:03:15;2.42;;;1.00;;
53269;SDS011;39159;45.634;9.420;2023-04-15T04:05:41;1.38;;;1.00;;
53269;SDS011;39159;45.634;9.420;2023-04-15T04:08:08;2.58;;;1.23;;
53269;SDS011;39159;45.634;9.420;2023-04-15T04:10:33;1.33;;;0.90;;
53269;SDS011;39159;45.634;9.420;2023-04-15T04:12:59;2.63;;;0.82;;
53269;SDS011;39159;45.634;9.420;2023-04-15T04:15:25;1.27;;;0.70;;
53269;SDS011;39159;45.634;9.420;2023-04-15T04:17:51;0.90;;;0.70;;
53269;SDS011;39159;45.634;9.420;2023-04-15T04:20:16;1.00;;;0.80;;
53269;SDS011;39159;45.634;9.420;2023-04-15T04:22:41;1.25;;;0.70;;
53269;SDS011;39159;45.634;9.420;2023-04-15T04:25:07;3.25;;;1.08;;
53269;SDS011;39159;45.634;9.420;2023-04-15T04:27:34;1.60;;;0.80;;
53269;SDS011;39159;45.634;9.420;2023-04-15T04:30:00;1.10;;;0.70;;
53269;SDS011;39159;45.634;9.420;2023-04-15T04:32:26;1.23;;;0.80;;
53269;SDS011;39159;45.634;9.420;2023-04-15T04:34:51;1.35;;;0.90;;
53269;SDS011;39159;45.634;9.420;2023-04-15T04:37:17;1.38;;;0.70;;
53269;SDS011;39159;45.634;9.420;2023-04-15T04:39:42;0.90;;;0.60;;
53269;SDS011;39159;45.634;9.420;2023-04-15T04:42:08;2.58;;;0.80;;
53269;SDS011;39159;45.634;9.420;2023-04-15T04:44:33;3.33;;;1.27;;
53269;SDS011;39159;45.634;9.420;2023-04-15T04:46:59;2.63;;;0.93;;
53269;SDS011;39159;45.634;9.420;2023-04-15T04:49:24;5.05;;;1.23;;
53269;SDS011;39159;45.634;9.420;2023-04-15T04:51:50;2.03;;;1.02;;
53269;SDS011;39159;45.634;9.420;2023-04-15T04:54:16;4.70;;;1.08;;
53269;SDS011;39159;45.634;9.420;2023-04-15T04:56:41;2.35;;;0.90;;
53269;SDS011;39159;45.634;9.420;2023-04-15T04:59:07;5.32;;;0.90;;
53269;SDS011;39159;45.634;9.420;2023-04-15T05:01:33;3.92;;;1.00;;
53269;SDS011;39159;45.634;9.420;2023-04-15T05:03:59;1.02;;;0.80;;
53269;SDS011;39159;45.634;9.420;2023-04-15T05:06:24;2.25;;;0.80;;
53269;SDS011;39159;45.634;9.420;2023-04-15T05:08:50;2.17;;;0.80;;
53269;SDS011;39159;45.634;9.420;2023-04-15T05:11:16;3.55;;;1.08;;
53269;SDS011;39159;45.634;9.420;2023-04-15T05:13:41;3.90;;;1.27;;
53269;SDS011;39159;45.634;9.420;2023-04-15T05:16:07;2.90;;;1.33;;
53269;SDS011;39159;45.634;9.420;2023-04-15T05:18:33;5.03;;;1.30;;
53269;SDS011;39159;45.634;9.420;2023-04-15T05:20:59;6.78;;;1.60;;
53269;SDS011;39159;45.634;9.420;2023-04-15T05:23:24;3.67;;;1.48;;
53269;SDS011;39159;45.634;9.420;2023-04-15T05:25:50;5.18;;;1.67;;
53269;SDS011;39159;45.634;9.420;2023-04-15T05:28:15;4.63;;;2.05;;
53269;SDS011;39159;45.634;9.420;2023-04-15T05:30:41;4.95;;;1.70;;
53269;SDS011;39159;45.634;9.420;2023-04-15T05:33:07;5.47;;;1.85;;
53269;SDS011;39159;45.634;9.420;2023-04-15T05:35:32;4.07;;;1.67;;
53269;SDS011;39159;45.634;9.420;2023-04-15T05:37:58;2.70;;;1.65;;
53269;SDS011;39159;45.634;9.420;2023-04-15T05:40:23;4.68;;;1.70;;
53269;SDS011;39159;45.634;9.420;2023-04-15T05:42:49;2.17;;;1.38;;
53269;SDS011;39159;45.634;9.420;2023-04-15T05:45:15;4.68;;;1.30;;
53269;SDS011;39159;45.634;9.420;2023-04-15T05:47:40;5.00;;;1.70;;
53269;SDS011;39159;45.634;9.420;2023-04-15T05:50:06;2.33;;;1.40;;
53269;SDS011;39159;45.634;9.420;2023-04-15T05:52:32;2.95;;;1.33;;
53269;SDS011;39159;45.634;9.420;2023-04-15T05:54:57;3.17;;;1.67;;
53269;SDS011;39159;45.634;9.420;2023-04-15T05:57:23;2.60;;;1.27;;
53269;SDS011;39159;45.634;9.420;2023-04-15T05:59:48;3.78;;;1.40;;
53269;SDS011;39159;45.634;9.420;2023-04-15T06:02:16;2.95;;;1.58;;
53269;SDS011;39159;45.634;9.420;2023-04-15T06:04:42;4.35;;;1.27;;
53269;SDS011;39159;45.634;9.420;2023-04-15T06:07:08;6.10;;;1.15;;
53269;SDS011;39159;45.634;9.420;2023-04-15T06:09:33;1.38;;;1.00;;
53269;SDS011;39159;45.634;9.420;2023-04-15T06:11:59;2.50;;;1.23;;
53269;SDS011;39159;45.634;9.420;2023-04-15T06:14:25;3.97;;;1.95;;
53269;SDS011;39159;45.634;9.420;2023-04-15T06:16:51;2.22;;;1.40;;
53269;SDS011;39159;45.634;9.420;2023-04-15T06:19:17;1.73;;;1.08;;
53269;SDS011;39159;45.634;9.420;2023-04-15T06:21:43;1.92;;;1.17;;
53269;SDS011;39159;45.634;9.420;2023-04-15T06:24:10;2.97;;;1.50;;
53269;SDS011;39159;45.634;9.420;2023-04-15T06:26:36;3.03;;;1.25;;
53269;SDS011;39159;45.634;9.420;2023-04-15T06:29:01;4.47;;;1.60;;
53269;SDS011;39159;45.634;9.420;2023-04-15T06:31:27;3.53;;;1.30;;
53269;SDS011;39159;45.634;9.420;2023-04-15T06:33:52;2.75;;;1.55;;
53269;SDS011;39159;45.634;9.420;2023-04-15T06:36:17;2.78;;;1.70;;
53269;SDS011;39159;45.634;9.420;2023-04-15T06:38:43;2.53;;;1.70;;
53269;SDS011;39159;45.634;9.420;2023-04-15T06:41:08;5.97;;;1.55;;
53269;SDS011;39159;45.634;9.420;2023-04-15T06:43:34;3.65;;;1.90;;
53269;SDS011;39159;45.634;9.420;2023-04-15T06:46:00;4.22;;;2.03;;
53269;SDS011;39159;45.634;9.420;2023-04-15T06:48:26;3.05;;;1.83;;
53269;SDS011;39159;45.634;9.420;2023-04-15T06:50:51;4.45;;;2.72;;
53269;SDS011;39159;45.634;9.420;2023-04-15T06:53:17;6.47;;;2.80;;
53269;SDS011;39159;45.634;9.420;2023-04-15T06:55:42;4.70;;;2.58;;
53269;SDS011;39159;45.634;9.420;2023-04-15T06:58:08;8.98;;;2.72;;
53269;SDS011;39159;45.634;9.420;2023-04-15T07:00:33;4.45;;;2.55;;
53269;SDS011;39159;45.634;9.420;2023-04-15T07:02:59;6.32;;;2.67;;
53269;SDS011;39159;45.634;9.420;2023-04-15T07:05:28;7.32;;;2.67;;
53269;SDS011;39159;45.634;9.420;2023-04-15T07:07:54;4.68;;;2.72;;
53269;SDS011;39159;45.634;9.420;2023-04-15T07:10:20;4.57;;;2.95;;
53269;SDS011;39159;45.634;9.420;2023-04-15T07:12:46;4.82;;;3.13;;
53269;SDS011;39159;45.634;9.420;2023-04-15T07:15:12;6.38;;;3.33;;
53269;SDS011;39159;45.634;9.420;2023-04-15T07:17:38;5.82;;;3.38;;
53269;SDS011;39159;45.634;9.420;2023-04-15T07:20:03;8.55;;;3.20;;
53269;SDS011;39159;45.634;9.420;2023-04-15T07:22:29;7.03;;;3.67;;
53269;SDS011;39159;45.634;9.420;2023-04-15T07:24:55;6.65;;;3.65;;
53269;SDS011;39159;45.634;9.420;2023-04-15T07:27:20;4.63;;;3.40;;
53269;SDS011;39159;45.634;9.420;2023-04-15T07:29:46;5.53;;;3.40;;
53269;SDS011;39159;45.634;9.420;2023-04-15T07:32:12;9.27;;;4.30;;
53269;SDS011;39159;45.634;9.420;2023-04-15T07:34:37;4.57;;;3.00;;
53269;SDS011;39159;45.634;9.420;2023-04-15T07:37:03;7.57;;;3.90;;
53269;SDS011;39159;45.634;9.420;2023-04-15T07:39:28;6.78;;;3.92;;
53269;SDS011;39159;45.634;9.420;2023-04-15T07:41:54;7.20;;;4.20;;
53269;SDS011;39159;45.634;9.420;2023-04-15T07:44:20;5.97;;;3.47;;
53269;SDS011;39159;45.634;9.420;2023-04-15T07:46:46;7.32;;;3.13;;
53269;SDS011;39159;45.634;9.420;2023-04-15T07:49:12;6.20;;;3.60;;
53269;SDS011;39159;45.634;9.420;2023-04-15T07:51:37;6.93;;;3.72;;
53269;SDS011;39159;45.634;9.420;2023-04-15T07:54:03;5.80;;;3.40;;
53269;SDS011;39159;45.634;9.420;2023-04-15T07:56:28;4.72;;;3.50;;
53269;SDS011;39159;45.634;9.420;2023-04-15T07:58:54;5.97;;;3.42;;
53269;SDS011;39159;45.634;9.420;2023-04-15T08:01:19;6.45;;;3.67;;
53269;SDS011;39159;45.634;9.420;2023-04-15T08:03:45;5.85;;;3.90;;
53269;SDS011;39159;45.634;9.420;2023-04-15T08:06:11;9.75;;;3.90;;
53269;SDS011;39159;45.634;9.420;2023-04-15T08:08:36;7.53;;;3.72;;
53269;SDS011;39159;45.634;9.420;2023-04-15T08:11:01;6.30;;;3.42;;
53269;SDS011;39159;45.634;9.420;2023-04-15T08:13:27;7.15;;;3.28;;
53269;SDS011;39159;45.634;9.420;2023-04-15T08:16:15;6.60;;;3.72;;
53269;SDS011;39159;45.634;9.420;2023-04-15T08:18:41;9.00;;;3.60;;
53269;SDS011;39159;45.634;9.420;2023-04-15T08:21:06;6.40;;;3.97;;
53269;SDS011;39159;45.634;9.420;2023-04-15T08:23:32;7.60;;;3.45;;
53269;SDS011;39159;45.634;9.420;2023-04-15T08:25:58;6.15;;;3.33;;
53269;SDS011;39159;45.634;9.420;2023-04-15T08:28:24;6.03;;;2.97;;
53269;SDS011;39159;45.634;9.420;2023-04-15T08:30:49;6.35;;;3.65;;
53269;SDS011;39159;45.634;9.420;2023-04-15T08:33:17;5.70;;;3.53;;
53269;SDS011;39159;45.634;9.420;2023-04-15T08:35:43;5.65;;;3.50;;
53269;SDS011;39159;45.634;9.420;2023-04-15T08:38:08;6.00;;;4.00;;
53269;SDS011;39159;45.634;9.420;2023-04-15T08:40:40;7.25;;;3.97;;
53269;SDS011;39159;45.634;9.420;2023-04-15T08:43:20;7.32;;;3.75;;
53269;SDS011;39159;45.634;9.420;2023-04-15T08:45:51;6.20;;;3.47;;
53269;SDS011;39159;45.634;9.420;2023-04-15T08:48:17;7.90;;;4.20;;
53269;SDS011;39159;45.634;9.420;2023-04-15T08:50:44;5.90;;;3.60;;
53269;SDS011;39159;45.634;9.420;2023-04-15T08:53:11;5.88;;;3.47;;
53269;SDS011;39159;45.634;9.420;2023-04-15T08:55:38;6.07;;;3.35;;
53269;SDS011;39159;45.634;9.420;2023-04-15T08:58:14;4.68;;;3.47;;
53269;SDS011;39159;45.634;9.420;2023-04-15T09:00:40;9.18;;;4.07;;
53269;SDS011;39159;45.634;9.420;2023-04-15T09:03:06;5.82;;;3.78;;
53269;SDS011;39159;45.634;9.420;2023-04-15T09:05:32;8.48;;;3.80;;
53269;SDS011;39159;45.634;9.420;2023-04-15T09:07:59;5.82;;;4.00;;
53269;SDS011;39159;45.634;9.420;2023-04-15T09:10:25;5.18;;;3.85;;
53269;SDS011;39159;45.634;9.420;2023-04-15T09:12:51;10.07;;;4.60;;
53269;SDS011;39159;45.634;9.420;2023-04-15T09:15:17;6.78;;;4.57;;
53269;SDS011;39159;45.634;9.420;2023-04-15T09:17:43;7.80;;;4.30;;
53269;SDS011;39159;45.634;9.420;2023-04-15T09:20:10;5.70;;;3.80;;
53269;SDS011;39159;45.634;9.420;2023-04-15T09:22:40;6.50;;;3.80;;
53269;SDS011;39159;45.634;9.420;2023-04-15T09:25:27;5.57;;;3.83;;
53269;SDS011;39159;45.634;9.420;2023-04-15T09:27:54;6.00;;;4.30;;
53269;SDS011;39159;45.634;9.420;2023-04-15T09:30:20;5.32;;;3.80;;
53269;SDS011;39159;45.634;9.420;2023-04-15T09:32:49;6.97;;;3.58;;
53269;SDS011;39159;45.634;9.420;2023-04-15T09:35:16;7.10;;;3.90;;
53269;SDS011;39159;45.634;9.420;2023-04-15T09:37:42;5.53;;;3.83;;
53269;SDS011;39159;45.634;9.420;2023-04-15T09:40:07;7.15;;;3.60;;
53269;SDS011;39159;45.634;9.420;2023-04-15T09:42:34;7.05;;;3.72;;
53269;SDS011;39159;45.634;9.420;2023-04-15T09:45:07;6.65;;;4.20;;
53269;SDS011;39159;45.634;9.420;2023-04-15T09:47:33;4.93;;;3.67;;
53269;SDS011;39159;45.634;9.420;2023-04-15T09:49:59;8.40;;;3.70;;
53269;SDS011;39159;45.634;9.420;2023-04-15T09:52:25;7.22;;;4.03;;
53269;SDS011;39159;45.634;9.420;2023-04-15T09:54:54;5.53;;;3.72;;
53269;SDS011;39159;45.634;9.420;2023-04-15T09:57:21;7.22;;;4.35;;
53269;SDS011;39159;45.634;9.420;2023-04-15T09:59:48;6.85;;;3.53;;
53269;SDS011;39159;45.634;9.420;2023-04-15T10:02:14;7.13;;;4.05;;
53269;SDS011;39159;45.634;9.420;2023-04-15T10:04:41;6.70;;;3.50;;
53269;SDS011;39159;45.634;9.420;2023-04-15T10:07:10;6.05;;;3.70;;
53269;SDS011;39159;45.634;9.420;2023-04-15T10:09:37;9.30;;;3.40;;
53269;SDS011;39159;45.634;9.420;2023-04-15T10:12:03;8.70;;;3.00;;
53269;SDS011;39159;45.634;9.420;2023-04-15T10:14:31;7.63;;;3.65;;
53269;SDS011;39159;45.634;9.420;2023-04-15T10:17:00;7.75;;;3.33;;
53269;SDS011;39159;45.634;9.420;2023-04-15T10:19:27;5.50;;;3.50;;
53269;SDS011;39159;45.634;9.420;2023-04-15T10:21:56;7.22;;;4.10;;
53269;SDS011;39159;45.634;9.420;2023-04-15T10:24:22;6.15;;;3.50;;
53269;SDS011;39159;45.634;9.420;2023-04-15T10:26:50;10.10;;;3.47;;
53269;SDS011;39159;45.634;9.420;2023-04-15T10:29:16;8.35;;;3.75;;
53269;SDS011;39159;45.634;9.420;2023-04-15T10:31:42;6.45;;;3.50;;
53269;SDS011;39159;45.634;9.420;2023-04-15T10:34:08;8.27;;;3.42;;
53269;SDS011;39159;45.634;9.420;2023-04-15T10:36:35;6.75;;;3.90;;
53269;SDS011;39159;45.634;9.420;2023-04-15T10:39:01;4.57;;;3.22;;
53269;SDS011;39159;45.634;9.420;2023-04-15T10:42:00;6.28;;;3.70;;
53269;SDS011;39159;45.634;9.420;2023-04-15T10:44:49;5.40;;;4.20;;
53269;SDS011;39159;45.634;9.420;2023-04-15T10:47:19;6.95;;;3.63;;
53269;SDS011;39159;45.634;9.420;2023-04-15T10:49:49;6.25;;;3.45;;
53269;SDS011;39159;45.634;9.420;2023-04-15T10:52:26;5.60;;;3.58;;
53269;SDS011;39159;45.634;9.420;2023-04-15T10:57:41;6.78;;;3.80;;
53269;SDS011;39159;45.634;9.420;2023-04-15T11:05:19;6.07;;;4.22;;
53269;SDS011;39159;45.634;9.420;2023-04-15T11:07:47;6.35;;;3.70;;
53269;SDS011;39159;45.634;9.420;2023-04-15T11:12:53;5.38;;;3.83;;
53269;SDS011;39159;45.634;9.420;2023-04-15T11:20:43;6.38;;;4.10;;
53269;SDS011;39159;45.634;9.420;2023-04-15T11:23:13;6.13;;;3.70;;
53269;SDS011;39159;45.634;9.420;2023-04-15T11:25:39;7.10;;;4.32;;
53269;SDS011;39159;45.634;9.420;2023-04-15T11:28:05;5.60;;;4.00;;
53269;SDS011;39159;45.634;9.420;2023-04-15T11:30:35;8.10;;;4.15;;
53269;SDS011;39159;45.634;9.420;2023-04-15T11:33:02;8.20;;;4.00;;
53269;SDS011;39159;45.634;9.420;2023-04-15T11:35:29;6.63;;;4.00;;
53269;SDS011;39159;45.634;9.420;2023-04-15T11:37:55;7.43;;;5.10;;
53269;SDS011;39159;45.634;9.420;2023-04-15T11:40:22;7.47;;;4.25;;
53269;SDS011;39159;45.634;9.420;2023-04-15T11:45:29;6.43;;;4.57;;
53269;SDS011;39159;45.634;9.420;2023-04-15T11:47:57;7.38;;;4.45;;
53269;SDS011;39159;45.634;9.420;2023-04-15T11:50:38;9.38;;;4.20;;
53269;SDS011;39159;45.634;9.420;2023-04-15T11:53:08;7.95;;;4.15;;
53269;SDS011;39159;45.634;9.420;2023-04-15T11:55:42;7.50;;;4.40;;
53269;SDS011;39159;45.634;9.420;2023-04-15T11:58:20;12.82;;;3.95;;
53269;SDS011;39159;45.634;9.420;2023-04-15T12:00:54;6.43;;;3.33;;
53269;SDS011;39159;45.634;9.420;2023-04-15T12:03:23;9.05;;;4.25;;
53269;SDS011;39159;45.634;9.420;2023-04-15T12:06:07;8.40;;;4.28;;
53269;SDS011;39159;45.634;9.420;2023-04-15T12:11:14;8.25;;;4.82;;
53269;SDS011;39159;45.634;9.420;2023-04-15T12:13:45;6.55;;;4.20;;
53269;SDS011;39159;45.634;9.420;2023-04-15T12:16:12;7.80;;;4.97;;
53269;SDS011;39159;45.634;9.420;2023-04-15T12:18:40;7.45;;;3.95;;
53269;SDS011;39159;45.634;9.420;2023-04-15T12:21:09;8.50;;;3.78;;
53269;SDS011;39159;45.634;9.420;2023-04-15T12:23:39;9.55;;;4.13;;
53269;SDS011;39159;45.634;9.420;2023-04-15T12:26:16;7.57;;;4.00;;
53269;SDS011;39159;45.634;9.420;2023-04-15T12:28:43;6.47;;;3.83;;
53269;SDS011;39159;45.634;9.420;2023-04-15T12:31:09;7.65;;;3.72;;
53269;SDS011;39159;45.634;9.420;2023-04-15T12:33:36;10.48;;;4.05;;
53269;SDS011;39159;45.634;9.420;2023-04-15T12:36:02;5.38;;;3.45;;
53269;SDS011;39159;45.634;9.420;2023-04-15T12:38:28;8.20;;;3.50;;
53269;SDS011;39159;45.634;9.420;2023-04-15T12:40:55;9.55;;;4.20;;
53269;SDS011;39159;45.634;9.420;2023-04-15T12:43:21;6.95;;;3.83;;
53269;SDS011;39159;45.634;9.420;2023-04-15T12:45:46;5.50;;;3.50;;
53269;SDS011;39159;45.634;9.420;2023-04-15T12:48:12;6.50;;;3.50;;
53269;SDS011;39159;45.634;9.420;2023-04-15T12:50:37;10.38;;;3.60;;
53269;SDS011;39159;45.634;9.420;2023-04-15T12:53:03;8.60;;;4.00;;
53269;SDS011;39159;45.634;9.420;2023-04-15T12:55:28;7.45;;;3.33;;
53269;SDS011;39159;45.634;9.420;2023-04-15T12:57:55;9.70;;;3.80;;
53269;SDS011;39159;45.634;9.420;2023-04-15T13:00:21;9.32;;;3.75;;
53269;SDS011;39159;45.634;9.420;2023-04-15T13:02:47;5.72;;;3.38;;
53269;SDS011;39159;45.634;9.420;2023-04-15T13:05:13;5.53;;;3.25;;
53269;SDS011;39159;45.634;9.420;2023-04-15T13:07:40;6.25;;;3.60;;
53269;SDS011;39159;45.634;9.420;2023-04-15T13:10:06;5.20;;;2.88;;
53269;SDS011;39159;45.634;9.420;2023-04-15T13:12:32;4.47;;;3.28;;
53269;SDS011;39159;45.634;9.420;2023-04-15T13:15:00;6.22;;;3.33;;
53269;SDS011;39159;45.634;9.420;2023-04-15T13:17:26;6.93;;;3.30;;
53269;SDS011;39159;45.634;9.420;2023-04-15T13:19:52;6.35;;;3.15;;
53269;SDS011;39159;45.634;9.420;2023-04-15T13:22:18;7.18;;;3.45;;
53269;SDS011;39159;45.634;9.420;2023-04-15T13:24:43;8.32;;;3.35;;
53269;SDS011;39159;45.634;9.420;2023-04-15T13:27:08;5.65;;;3.45;;
53269;SDS011;39159;45.634;9.420;2023-04-15T13:29:34;5.40;;;3.10;;
53269;SDS011;39159;45.634;9.420;2023-04-15T13:31:59;7.43;;;3.72;;
53269;SDS011;39159;45.634;9.420;2023-04-15T13:34:25;4.53;;;3.10;;
53269;SDS011;39159;45.634;9.420;2023-04-15T13:36:51;10.38;;;3.22;;
53269;SDS011;39159;45.634;9.420;2023-04-15T13:39:16;6.65;;;4.00;;
53269;SDS011;39159;45.634;9.420;2023-04-15T13:41:41;6.00;;;3.60;;
53269;SDS011;39159;45.634;9.420;2023-04-15T13:44:07;6.68;;;3.53;;
53269;SDS011;39159;45.634;9.420;2023-04-15T13:46:33;7.68;;;3.58;;
53269;SDS011;39159;45.634;9.420;2023-04-15T13:48:58;4.13;;;2.88;;
53269;SDS011;39159;45.634;9.420;2023-04-15T13:51:23;4.65;;;3.13;;
53269;SDS011;39159;45.634;9.420;2023-04-15T13:53:50;6.57;;;3.65;;
53269;SDS011;39159;45.634;9.420;2023-04-15T13:56:16;5.65;;;2.95;;
53269;SDS011;39159;45.634;9.420;2023-04-15T13:58:41;6.95;;;3.80;;
53269;SDS011;39159;45.634;9.420;2023-04-15T14:01:07;8.68;;;3.70;;
53269;SDS011;39159;45.634;9.420;2023-04-15T14:03:35;10.07;;;3.08;;
53269;SDS011;39159;45.634;9.420;2023-04-15T14:06:01;6.50;;;3.40;;
53269;SDS011;39159;45.634;9.420;2023-04-15T14:08:26;4.85;;;2.92;;
53269;SDS011;39159;45.634;9.420;2023-04-15T14:10:52;5.00;;;3.40;;
53269;SDS011;39159;45.634;9.420;2023-04-15T14:13:17;4.93;;;3.13;;
53269;SDS011;39159;45.634;9.420;2023-04-15T14:15:43;3.28;;;2.47;;
53269;SDS011;39159;45.634;9.420;2023-04-15T14:18:09;4.88;;;3.13;;
53269;SDS011;39159;45.634;9.420;2023-04-15T14:20:34;3.83;;;2.88;;
53269;SDS011;39159;45.634;9.420;2023-04-15T14:23:00;5.35;;;3.47;;
53269;SDS011;39159;45.634;9.420;2023-04-15T14:25:25;6.90;;;3.60;;
53269;SDS011;39159;45.634;9.420;2023-04-15T14:27:51;5.72;;;3.30;;
53269;SDS011;39159;45.634;9.420;2023-04-15T14:30:17;6.00;;;3.03;;
53269;SDS011;39159;45.634;9.420;2023-04-15T14:32:43;6.28;;;3.38;;
53269;SDS011;39159;45.634;9.420;2023-04-15T14:35:08;5.65;;;3.85;;
53269;SDS011;39159;45.634;9.420;2023-04-15T14:37:33;9.40;;;3.00;;
53269;SDS011;39159;45.634;9.420;2023-04-15T14:39:59;7.30;;;3.53;;
53269;SDS011;39159;45.634;9.420;2023-04-15T14:42:24;5.80;;;3.70;;
53269;SDS011;39159;45.634;9.420;2023-04-15T14:44:50;7.53;;;3.97;;
53269;SDS011;39159;45.634;9.420;2023-04-15T14:47:15;7.80;;;4.15;;
53269;SDS011;39159;45.634;9.420;2023-04-15T14:49:41;7.10;;;3.60;;
53269;SDS011;39159;45.634;9.420;2023-04-15T14:52:07;5.05;;;3.55;;
53269;SDS011;39159;45.634;9.420;2023-04-15T14:54:32;5.05;;;3.20;;
53269;SDS011;39159;45.634;9.420;2023-04-15T14:56:58;6.93;;;3.20;;
53269;SDS011;39159;45.634;9.420;2023-04-15T14:59:23;6.88;;;3.42;;
53269;SDS011;39159;45.634;9.420;2023-04-15T15:01:48;6.35;;;3.38;;
53269;SDS011;39159;45.634;9.420;2023-04-15T15:04:14;5.85;;;3.40;;
53269;SDS011;39159;45.634;9.420;2023-04-15T15:06:40;6.15;;;3.30;;